createdAt,value
2023-05-04T00:00:02.585Z,73.18
2023-05-04T00:02:29.309Z,75.66
2023-05-04T00:04:55.816Z,75.73
2023-05-04T00:07:22.308Z,76.13
2023-05-04T00:09:49.934Z,74.94
2023-05-04T00:12:17.127Z,75.28
2023-05-04T00:14:43.559Z,76.46
2023-05-04T00:17:10.187Z,76.94
2023-05-04T00:19:37.174Z,76.77
2023-05-04T00:22:03.791Z,76.58
2023-05-04T00:24:30.202Z,78.76
2023-05-04T00:26:56.765Z,78.17
2023-05-04T00:29:23.170Z,77.69
2023-05-04T00:31:49.815Z,79.09
2023-05-04T00:34:16.904Z,77.60
2023-05-04T00:36:43.372Z,80.16
2023-05-04T00:39:09.981Z,76.89
2023-05-04T00:41:36.730Z,79.12
2023-05-04T00:44:04.304Z,80.74
2023-05-04T00:46:32.310Z,80.14
2023-05-04T00:48:59.802Z,82.23
2023-05-04T00:51:26.899Z,80.24
2023-05-04T00:53:55.071Z,83.30
2023-05-04T00:56:26.805Z,80.82
2023-05-04T00:58:54.527Z,82.75
2023-05-04T01:01:22.274Z,81.74
2023-05-04T01:03:53.656Z,84.58
2023-05-04T01:06:44.721Z,82.89
2023-05-04T01:09:24.802Z,84.26
2023-05-04T01:12:27.468Z,85.54
2023-05-04T01:14:56.152Z,83.68
2023-05-04T01:17:22.484Z,85.35
2023-05-04T01:19:51.126Z,84.03
2023-05-04T01:22:17.465Z,83.97
2023-05-04T01:24:43.715Z,85.65
2023-05-04T01:27:15.599Z,85.17
2023-05-04T01:29:56.731Z,83.97
2023-05-04T01:32:24.394Z,85.51
2023-05-04T01:34:50.785Z,80.83
2023-05-04T01:37:17.153Z,84.98
2023-05-04T01:39:43.461Z,85.02
2023-05-04T01:42:09.730Z,85.78
2023-05-04T01:44:36.197Z,86.47
2023-05-04T01:47:02.730Z,84.74
2023-05-04T01:49:28.977Z,86.35
2023-05-04T01:51:55.840Z,86.35
2023-05-04T01:54:22.453Z,86.32
2023-05-04T01:56:48.846Z,87.47
2023-05-04T01:59:15.948Z,86.55
2023-05-04T02:01:42.413Z,86.60
2023-05-04T02:04:08.883Z,86.73
2023-05-04T02:06:35.412Z,88.50
2023-05-04T02:09:03.040Z,85.20
2023-05-04T02:11:29.279Z,85.63
2023-05-04T02:13:55.712Z,83.27
2023-05-04T02:16:22.115Z,86.97
2023-05-04T02:18:48.450Z,86.04
2023-05-04T02:21:14.828Z,87.19
2023-05-04T02:23:41.215Z,86.23
2023-05-04T02:26:07.550Z,87.69
2023-05-04T02:28:34.148Z,89.14
2023-05-04T02:31:00.627Z,88.79
2023-05-04T02:33:26.937Z,89.18
2023-05-04T02:35:53.290Z,87.74
2023-05-04T02:38:19.556Z,89.43
2023-05-04T02:40:45.884Z,89.25
2023-05-04T02:43:12.499Z,89.06
2023-05-04T02:45:38.891Z,88.27
2023-05-04T02:48:05.325Z,88.37
2023-05-04T02:50:31.748Z,89.80
2023-05-04T02:52:57.991Z,89.42
2023-05-04T02:55:24.294Z,89.55
2023-05-04T02:57:50.605Z,88.34
2023-05-04T03:00:17.324Z,90.68
2023-05-04T03:02:43.743Z,88.52
2023-05-04T03:05:10.403Z,90.11
2023-05-04T03:07:36.708Z,90.83
2023-05-04T03:10:03.232Z,90.87
2023-05-04T03:12:30.118Z,90.55
2023-05-04T03:14:56.849Z,91.64
2023-05-04T03:17:23.114Z,89.34
2023-05-04T03:19:49.488Z,91.21
2023-05-04T03:22:15.825Z,89.85
2023-05-04T03:24:42.205Z,90.29
2023-05-04T03:27:08.993Z,91.99
2023-05-04T03:29:35.315Z,93.28
2023-05-04T03:32:01.738Z,91.06
2023-05-04T03:34:28.335Z,91.73
2023-05-04T03:36:54.864Z,92.49
2023-05-04T03:39:21.150Z,91.16
2023-05-04T03:41:47.512Z,93.64
2023-05-04T03:44:13.771Z,92.16
2023-05-04T03:46:40.058Z,94.06
2023-05-04T03:49:06.365Z,93.22
2023-05-04T03:51:32.674Z,94.09
2023-05-04T03:53:58.995Z,95.06
2023-05-04T03:56:25.768Z,92.45
2023-05-04T03:58:52.167Z,94.63
2023-05-04T04:01:18.450Z,94.01
2023-05-04T04:03:44.920Z,94.10
2023-05-04T04:06:13.226Z,95.68
2023-05-04T04:08:39.568Z,93.31
2023-05-04T04:11:05.913Z,96.65
2023-05-04T04:13:32.227Z,95.95
2023-05-04T04:15:58.542Z,97.30
2023-05-04T04:18:24.974Z,96.67
2023-05-04T04:20:51.366Z,96.98
2023-05-04T04:23:21.679Z,96.87
2023-05-04T04:25:48.057Z,96.82
2023-05-04T04:28:14.483Z,97.19
2023-05-04T04:30:41.661Z,96.34
2023-05-04T04:33:08.235Z,98.94
2023-05-04T04:35:34.724Z,99.41
2023-05-04T04:38:03.596Z,98.05
2023-05-04T04:40:30.355Z,100.00
2023-05-04T04:42:56.765Z,99.68
2023-05-04T04:45:23.497Z,100.00
2023-05-04T04:47:49.833Z,100.00
2023-05-04T04:50:16.252Z,100.00
2023-05-04T04:52:42.562Z,99.54
2023-05-04T04:55:09.232Z,99.86
2023-05-04T04:57:35.565Z,100.00
2023-05-04T05:00:02.361Z,100.00
2023-05-04T05:02:28.873Z,96.54
2023-05-04T05:04:55.466Z,96.75
2023-05-04T05:07:21.784Z,96.28
2023-05-04T05:09:48.114Z,96.76
2023-05-04T05:12:14.403Z,96.81
2023-05-04T05:14:40.699Z,94.89
2023-05-04T05:17:07.115Z,98.80
2023-05-04T05:19:37.307Z,97.38
2023-05-04T05:22:04.363Z,97.64
2023-05-04T05:24:31.120Z,98.49
2023-05-04T05:26:58.184Z,98.25
2023-05-04T05:29:24.958Z,96.74
2023-05-04T05:31:51.310Z,98.55
2023-05-04T05:34:17.608Z,97.30
2023-05-04T05:36:44.657Z,94.61
2023-05-04T05:39:11.520Z,94.56
2023-05-04T05:41:37.890Z,93.06
2023-05-04T05:44:04.272Z,94.13
2023-05-04T05:46:30.663Z,93.77
2023-05-04T05:48:56.989Z,92.00
2023-05-04T05:51:23.231Z,90.75
2023-05-04T05:53:49.604Z,93.07
2023-05-04T05:56:15.892Z,89.92
2023-05-04T05:58:43.267Z,91.46
2023-05-04T06:01:09.612Z,91.15
2023-05-04T06:03:36.059Z,91.00
2023-05-04T06:06:02.675Z,90.41
2023-05-04T06:08:28.948Z,89.48
2023-05-04T06:10:56.288Z,89.25
2023-05-04T06:13:22.545Z,88.45
2023-05-04T06:15:55.074Z,88.87
2023-05-04T06:18:21.603Z,89.33
2023-05-04T06:20:47.955Z,88.15
2023-05-04T06:23:15.272Z,87.11
2023-05-04T06:25:41.538Z,86.63
2023-05-04T06:28:07.909Z,85.37
2023-05-04T06:30:34.331Z,86.68
2023-05-04T06:33:00.724Z,87.37
2023-05-04T06:35:27.023Z,86.51
2023-05-04T06:37:53.397Z,86.79
2023-05-04T06:40:19.764Z,86.04
2023-05-04T06:42:46.125Z,87.05
2023-05-04T06:45:12.685Z,86.40
2023-05-04T06:47:38.978Z,85.32
2023-05-04T06:50:09.540Z,85.90
2023-05-04T06:52:38.420Z,84.27
2023-05-04T06:55:05.339Z,85.67
2023-05-04T06:57:31.674Z,84.86
2023-05-04T06:59:58.118Z,85.28
2023-05-04T07:02:24.548Z,83.47
2023-05-04T07:04:52.620Z,81.61
2023-05-04T07:07:19.324Z,83.43
2023-05-04T07:09:47.878Z,81.82
2023-05-04T07:12:14.377Z,82.41
2023-05-04T07:14:40.778Z,82.12
2023-05-04T07:17:09.474Z,82.40
2023-05-04T07:19:36.122Z,83.00
2023-05-04T07:22:02.484Z,81.47
2023-05-04T07:24:34.491Z,81.20
2023-05-04T07:27:01.180Z,82.12
2023-05-04T07:29:27.557Z,82.74
2023-05-04T07:31:54.340Z,81.05
2023-05-04T07:34:23.216Z,80.94
2023-05-04T07:36:52.008Z,79.95
2023-05-04T07:39:18.320Z,80.77
2023-05-04T07:41:44.730Z,82.75
2023-05-04T07:44:11.808Z,83.49
2023-05-04T07:46:38.772Z,82.65
2023-05-04T07:49:05.155Z,81.55
2023-05-04T07:51:31.497Z,80.33
2023-05-04T07:53:57.863Z,78.58
2023-05-04T07:56:24.209Z,78.18
2023-05-04T07:58:50.666Z,77.93
2023-05-04T08:01:16.997Z,76.36
2023-05-04T08:03:44.074Z,78.98
2023-05-04T08:06:10.406Z,78.24
2023-05-04T08:08:36.777Z,78.66
2023-05-04T08:11:18.643Z,76.38
2023-05-04T08:13:46.747Z,73.91
2023-05-04T08:16:13.095Z,76.93
2023-05-04T08:18:39.428Z,74.10
2023-05-04T08:21:05.855Z,76.40
2023-05-04T08:23:32.642Z,74.58
2023-05-04T08:26:01.448Z,70.10
2023-05-04T08:28:28.104Z,69.70
2023-05-04T08:30:54.474Z,68.22
2023-05-04T08:33:20.729Z,67.73
2023-05-04T08:35:47.045Z,65.93
2023-05-04T08:38:13.372Z,64.77
2023-05-04T08:40:46.456Z,65.37
2023-05-04T08:43:13.425Z,65.06
2023-05-04T08:45:40.291Z,63.61
2023-05-04T08:48:07.318Z,61.10
2023-05-04T08:50:34.288Z,59.88
2023-05-04T08:53:03.094Z,60.15
2023-05-04T08:55:32.075Z,59.74
2023-05-04T08:57:59.597Z,59.21
2023-05-04T09:00:26.514Z,58.92
2023-05-04T09:02:53.232Z,58.71
2023-05-04T09:05:19.792Z,58.31
2023-05-04T09:07:48.667Z,58.15
2023-05-04T09:10:15.124Z,56.47
2023-05-04T09:12:41.468Z,55.83
2023-05-04T09:15:17.520Z,55.69
2023-05-04T09:20:23.258Z,54.60
2023-05-04T09:23:08.661Z,54.10
2023-05-04T09:25:46.233Z,54.85
2023-05-04T09:28:12.744Z,54.55
2023-05-04T09:30:39.018Z,55.31
2023-05-04T09:33:05.374Z,54.44
2023-05-04T09:35:33.470Z,54.94
2023-05-04T09:38:00.239Z,54.51
2023-05-04T09:40:30.193Z,54.62
2023-05-04T09:42:57.232Z,53.88
2023-05-04T09:45:23.597Z,54.09
2023-05-04T09:47:52.919Z,53.59
2023-05-04T09:50:22.340Z,53.97
2023-05-04T09:52:49.692Z,54.11
2023-05-04T09:55:16.992Z,53.17
2023-05-04T09:57:44.219Z,52.15
2023-05-04T10:00:12.403Z,51.78
2023-05-04T10:02:39.290Z,51.26
2023-05-04T10:05:09.568Z,50.97
2023-05-04T10:07:36.462Z,51.10
2023-05-04T10:10:03.603Z,50.37
2023-05-04T10:12:30.011Z,51.65
2023-05-04T10:14:56.926Z,49.25
2023-05-04T10:17:23.456Z,49.70
2023-05-04T10:19:59.281Z,49.98
2023-05-04T10:22:37.987Z,48.87
2023-05-04T10:25:24.757Z,47.81
2023-05-04T10:28:00.582Z,48.50
2023-05-04T10:30:27.095Z,48.74
2023-05-04T10:32:57.333Z,47.13
2023-05-04T10:35:24.201Z,46.69
2023-05-04T10:37:54.660Z,46.36
2023-05-04T10:40:37.738Z,45.30
2023-05-04T10:43:04.341Z,46.47
2023-05-04T10:45:43.798Z,45.86
2023-05-04T10:48:10.489Z,45.36
2023-05-04T10:50:43.947Z,44.88
2023-05-04T10:53:11.409Z,44.19
2023-05-04T10:55:44.039Z,44.52
2023-05-04T10:58:11.538Z,43.29
2023-05-04T11:00:38.766Z,43.62
2023-05-04T11:03:06.163Z,43.87
2023-05-04T11:05:42.212Z,42.93
2023-05-04T11:08:22.292Z,42.64
2023-05-04T11:10:49.985Z,42.75
2023-05-04T11:13:16.461Z,41.08
2023-05-04T11:15:47.235Z,43.42
2023-05-04T11:18:13.937Z,41.82
2023-05-04T11:20:40.559Z,41.01
2023-05-04T11:23:10.195Z,41.76
2023-05-04T11:25:37.721Z,41.81
2023-05-04T11:28:04.543Z,41.13
2023-05-04T11:30:34.585Z,40.87
2023-05-04T11:33:11.770Z,39.61
2023-05-04T11:35:38.412Z,39.25
2023-05-04T11:38:04.796Z,39.71
2023-05-04T11:40:31.150Z,39.99
2023-05-04T11:42:58.052Z,38.87
2023-05-04T11:45:25.972Z,39.79
2023-05-04T11:47:52.758Z,39.50
2023-05-04T11:50:20.566Z,41.33
2023-05-04T11:52:47.198Z,39.85
2023-05-04T11:55:24.575Z,37.94
2023-05-04T11:57:58.076Z,38.53
2023-05-04T12:00:40.598Z,37.96
2023-05-04T12:03:17.675Z,39.27
2023-05-04T12:05:47.811Z,39.93
2023-05-04T12:08:27.501Z,38.67
2023-05-04T12:11:09.813Z,37.92
2023-05-04T12:13:36.357Z,38.21
2023-05-04T12:16:16.141Z,37.38
2023-05-04T12:18:42.839Z,38.17
2023-05-04T12:21:10.283Z,38.02
2023-05-04T12:23:37.246Z,37.83
2023-05-04T12:26:03.657Z,37.09
2023-05-04T12:28:30.029Z,36.53
2023-05-04T12:30:56.978Z,36.12
2023-05-04T12:33:24.498Z,37.15
2023-05-04T12:35:50.821Z,36.13
2023-05-04T12:38:17.461Z,37.31
2023-05-04T12:40:43.909Z,35.90
2023-05-04T12:43:10.329Z,37.05
2023-05-04T12:45:37.005Z,34.83
2023-05-04T12:48:03.413Z,35.53
2023-05-04T12:50:29.753Z,34.04
2023-05-04T12:52:56.065Z,35.60
2023-05-04T12:55:25.224Z,34.91
2023-05-04T12:57:51.912Z,34.94
2023-05-04T13:00:18.469Z,35.02
2023-05-04T13:02:44.817Z,34.16
2023-05-04T13:05:11.271Z,35.12
2023-05-04T13:07:37.585Z,35.37
2023-05-04T13:10:04.024Z,36.35
2023-05-04T13:12:30.359Z,34.87
2023-05-04T13:14:57.940Z,35.05
2023-05-04T13:17:24.276Z,35.01
2023-05-04T13:19:50.863Z,35.83
2023-05-04T13:22:17.291Z,36.90
2023-05-04T13:24:43.608Z,35.34
2023-05-04T13:27:09.852Z,35.23
2023-05-04T13:29:36.218Z,34.50
2023-05-04T13:32:02.716Z,36.06
2023-05-04T13:34:29.157Z,35.17
2023-05-04T13:36:55.767Z,34.86
2023-05-04T13:39:22.375Z,35.09
2023-05-04T13:41:48.759Z,34.87
2023-05-04T13:44:15.146Z,34.83
2023-05-04T13:46:41.506Z,34.10
2023-05-04T13:49:07.866Z,34.12
2023-05-04T13:51:34.801Z,34.78
2023-05-04T13:54:02.780Z,34.46
2023-05-04T13:56:29.585Z,34.36
2023-05-04T13:58:55.948Z,33.90
2023-05-04T14:01:23.597Z,33.91
2023-05-04T14:03:50.023Z,33.65
2023-05-04T14:06:16.355Z,34.54
2023-05-04T14:08:42.622Z,33.88
2023-05-04T14:11:08.936Z,34.05
2023-05-04T14:13:35.293Z,36.43
2023-05-04T14:16:01.687Z,35.13
2023-05-04T14:18:28.280Z,34.13
2023-05-04T14:20:54.631Z,34.17
2023-05-04T14:23:20.900Z,35.62
2023-05-04T14:25:51.928Z,36.41
2023-05-04T14:28:18.500Z,37.95
2023-05-04T14:30:44.902Z,36.11
2023-05-04T14:33:11.425Z,35.51
2023-05-04T14:35:39.697Z,35.54
2023-05-04T14:38:06.530Z,35.08
2023-05-04T14:40:32.857Z,35.76
2023-05-04T14:43:01.097Z,36.43
2023-05-04T14:45:27.375Z,35.80
2023-05-04T14:47:53.788Z,35.06
2023-05-04T14:50:20.853Z,34.90
2023-05-04T14:52:47.323Z,36.05
2023-05-04T14:55:14.266Z,35.77
2023-05-04T14:57:41.203Z,36.27
2023-05-04T15:00:09.355Z,35.97
2023-05-04T15:02:36.267Z,36.63
2023-05-04T15:05:02.791Z,36.51
2023-05-04T15:07:29.142Z,36.56
2023-05-04T15:09:55.669Z,37.14
2023-05-04T15:12:22.384Z,36.97
2023-05-04T15:14:48.750Z,36.35
2023-05-04T15:17:15.067Z,35.91
2023-05-04T15:19:41.404Z,37.54
2023-05-04T15:22:07.771Z,36.97
2023-05-04T15:24:34.039Z,36.88
2023-05-04T15:27:01.958Z,37.10
2023-05-04T15:29:28.480Z,37.36
2023-05-04T15:31:55.033Z,37.12
2023-05-04T15:34:21.720Z,36.94
2023-05-04T15:36:47.995Z,37.07
2023-05-04T15:39:14.882Z,37.16
2023-05-04T15:41:42.754Z,37.38
2023-05-04T15:44:09.121Z,37.24
2023-05-04T15:46:35.835Z,39.12
2023-05-04T15:49:02.316Z,38.02
2023-05-04T15:51:30.697Z,38.11
2023-05-04T15:53:57.258Z,38.08
2023-05-04T15:56:23.570Z,37.69
2023-05-04T15:58:49.906Z,38.59
2023-05-04T16:01:16.545Z,38.53
2023-05-04T16:03:43.377Z,37.91
2023-05-04T16:06:09.944Z,38.87
2023-05-04T16:08:36.848Z,39.01
2023-05-04T16:11:04.493Z,38.29
2023-05-04T16:13:31.026Z,38.71
2023-05-04T16:15:58.052Z,39.43
2023-05-04T16:18:24.565Z,40.68
2023-05-04T16:20:51.042Z,39.42
2023-05-04T16:23:17.637Z,40.19
2023-05-04T16:25:44.111Z,39.83
2023-05-04T16:28:11.072Z,40.01
2023-05-04T16:30:37.693Z,40.40
2023-05-04T16:33:04.538Z,40.69
2023-05-04T16:35:31.785Z,40.01
2023-05-04T16:37:58.515Z,40.40
2023-05-04T16:40:25.123Z,41.12
2023-05-04T16:42:51.389Z,41.24
2023-05-04T16:45:17.664Z,40.95
2023-05-04T16:47:44.136Z,40.62
2023-05-04T16:50:11.468Z,40.39
2023-05-04T16:52:38.382Z,40.59
2023-05-04T16:55:05.142Z,40.70
2023-05-04T16:57:31.458Z,41.77
2023-05-04T16:59:57.788Z,40.75
2023-05-04T17:02:24.237Z,41.33
2023-05-04T17:04:50.525Z,41.92
2023-05-04T17:07:16.788Z,41.37
2023-05-04T17:09:43.089Z,41.62
2023-05-04T17:12:09.345Z,42.64
2023-05-04T17:14:35.706Z,42.02
2023-05-04T17:17:02.041Z,43.68
2023-05-04T17:19:28.301Z,43.34
2023-05-04T17:21:54.645Z,42.92
2023-05-04T17:24:21.052Z,43.26
2023-05-04T17:26:47.379Z,43.71
2023-05-04T17:29:13.668Z,43.63
2023-05-04T17:31:40.268Z,44.13
2023-05-04T17:34:06.611Z,43.14
2023-05-04T17:36:35.680Z,43.14
2023-05-04T17:39:01.991Z,43.53
2023-05-04T17:41:28.599Z,43.71
2023-05-04T17:43:56.108Z,44.15
2023-05-04T17:46:23.280Z,43.38
2023-05-04T17:48:50.030Z,44.16
2023-05-04T17:51:19.263Z,43.66
2023-05-04T17:53:45.861Z,44.01
2023-05-04T17:56:12.389Z,44.54
2023-05-04T17:58:38.641Z,44.55
2023-05-04T18:01:04.957Z,44.55
2023-05-04T18:03:31.647Z,44.35
2023-05-04T18:05:57.959Z,44.81
2023-05-04T18:08:24.452Z,44.62
2023-05-04T18:10:51.051Z,44.89
2023-05-04T18:13:18.206Z,45.36
2023-05-04T18:15:44.635Z,46.07
2023-05-04T18:18:11.079Z,45.59
2023-05-04T18:20:37.568Z,45.66
2023-05-04T18:23:04.206Z,45.94
2023-05-04T18:25:30.568Z,46.58
2023-05-04T18:27:57.048Z,46.56
2023-05-04T18:30:23.544Z,46.50
2023-05-04T18:32:50.393Z,46.95
2023-05-04T18:35:17.164Z,47.49
2023-05-04T18:37:43.587Z,47.59
2023-05-04T18:40:10.987Z,47.73
2023-05-04T18:42:37.969Z,47.60
2023-05-04T18:45:05.768Z,48.22
2023-05-04T18:47:32.847Z,48.46
2023-05-04T18:50:03.582Z,48.44
2023-05-04T18:52:32.400Z,48.67
2023-05-04T18:55:03.451Z,49.00
2023-05-04T18:57:30.464Z,48.90
2023-05-04T18:59:56.878Z,49.15
2023-05-04T19:02:27.168Z,49.33
2023-05-04T19:04:54.065Z,49.92
2023-05-04T19:07:20.459Z,49.32
2023-05-04T19:09:47.328Z,50.19
2023-05-04T19:12:16.240Z,50.71
2023-05-04T19:14:45.846Z,50.25
2023-05-04T19:17:14.692Z,50.62
2023-05-04T19:19:41.034Z,50.81
2023-05-04T19:22:08.070Z,51.13
2023-05-04T19:24:36.377Z,51.28
2023-05-04T19:27:02.860Z,51.63
2023-05-04T19:29:29.743Z,51.90
2023-05-04T19:31:56.159Z,51.58
2023-05-04T19:34:27.240Z,52.31
2023-05-04T19:36:54.191Z,52.36
2023-05-04T19:39:21.200Z,52.31
2023-05-04T19:41:47.815Z,52.38
2023-05-04T19:44:14.193Z,52.57
2023-05-04T19:46:42.590Z,53.20
2023-05-04T19:49:08.905Z,53.34
2023-05-04T19:51:35.498Z,53.65
2023-05-04T19:54:02.331Z,53.68
2023-05-04T19:56:28.697Z,53.89
2023-05-04T19:58:55.859Z,53.88
2023-05-04T20:01:22.859Z,54.12
2023-05-04T20:03:49.242Z,54.44
2023-05-04T20:06:15.610Z,54.55
2023-05-04T20:08:41.904Z,55.30
2023-05-04T20:11:08.235Z,55.01
2023-05-04T20:13:34.680Z,55.20
2023-05-04T20:16:01.761Z,54.76
2023-05-04T20:18:28.109Z,55.27
2023-05-04T20:20:54.521Z,55.24
2023-05-04T20:23:20.908Z,55.67
2023-05-04T20:25:47.448Z,55.76
2023-05-04T20:28:14.003Z,55.70
2023-05-04T20:30:40.374Z,55.50
2023-05-04T20:33:06.680Z,55.27
2023-05-04T20:35:33.182Z,55.92
2023-05-04T20:37:59.553Z,56.38
2023-05-04T20:40:25.850Z,56.11
2023-05-04T20:42:52.198Z,57.05
2023-05-04T20:45:18.509Z,56.18
2023-05-04T20:47:44.827Z,56.53
2023-05-04T20:50:12.057Z,56.29
2023-05-04T20:52:38.583Z,56.85
2023-05-04T20:55:07.418Z,56.93
2023-05-04T20:57:33.905Z,57.45
2023-05-04T21:00:00.502Z,57.67
2023-05-04T21:02:26.952Z,57.75
2023-05-04T21:04:53.345Z,57.89
2023-05-04T21:07:20.444Z,58.03
2023-05-04T21:09:46.728Z,58.34
2023-05-04T21:12:13.064Z,57.72
2023-05-04T21:14:39.409Z,58.02
2023-05-04T21:17:06.974Z,57.94
2023-05-04T21:19:33.274Z,57.78
2023-05-04T21:21:59.588Z,58.91
2023-05-04T21:24:26.052Z,58.32
2023-05-04T21:26:52.555Z,58.03
2023-05-04T21:29:18.911Z,59.03
2023-05-04T21:31:45.575Z,58.84
2023-05-04T21:34:12.142Z,58.27
2023-05-04T21:36:38.996Z,58.71
2023-05-04T21:39:05.340Z,58.79
2023-05-04T21:41:31.676Z,58.86
2023-05-04T21:43:57.955Z,59.12
2023-05-04T21:46:24.289Z,58.94
2023-05-04T21:48:51.778Z,59.24
2023-05-04T21:51:20.553Z,59.55
2023-05-04T21:53:47.198Z,59.66
2023-05-04T21:56:13.680Z,60.26
2023-05-04T21:58:40.748Z,60.83
2023-05-04T22:01:08.023Z,61.16
2023-05-04T22:03:34.695Z,61.53
2023-05-04T22:06:01.152Z,61.97
2023-05-04T22:08:28.137Z,62.92
2023-05-04T22:10:56.995Z,63.04
2023-05-04T22:13:23.507Z,63.46
2023-05-04T22:15:50.839Z,63.61
2023-05-04T22:18:17.822Z,64.59
2023-05-04T22:20:44.285Z,64.68
2023-05-04T22:23:11.004Z,64.71
2023-05-04T22:25:37.442Z,65.02
2023-05-04T22:28:03.928Z,64.74
2023-05-04T22:30:30.548Z,65.64
2023-05-04T22:32:57.487Z,65.64
2023-05-04T22:35:23.782Z,64.91
2023-05-04T22:37:50.518Z,65.45
2023-05-04T22:40:17.137Z,66.32
2023-05-04T22:42:46.402Z,66.22
2023-05-04T22:45:15.801Z,65.97
2023-05-04T22:47:42.289Z,66.45
2023-05-04T22:50:09.334Z,66.22
2023-05-04T22:52:36.283Z,66.68
2023-05-04T22:55:02.753Z,100.00
2023-05-04T22:57:29.069Z,100.00
2023-05-04T22:59:55.369Z,100.00
2023-05-04T23:02:21.871Z,100.00
2023-05-04T23:04:48.259Z,100.00
2023-05-04T23:07:14.651Z,100.00
2023-05-04T23:09:42.155Z,100.00
2023-05-04T23:12:08.936Z,100.00
2023-05-04T23:14:35.418Z,100.00
2023-05-04T23:17:01.873Z,100.00
2023-05-04T23:19:28.203Z,100.00
2023-05-04T23:21:54.504Z,100.00
2023-05-04T23:24:20.987Z,100.00
2023-05-04T23:26:47.228Z,100.00
2023-05-04T23:29:13.528Z,100.00
2023-05-04T23:31:39.920Z,100.00
2023-05-04T23:34:06.458Z,100.00
2023-05-04T23:36:33.453Z,100.00
2023-05-04T23:38:59.886Z,100.00
2023-05-04T23:41:26.181Z,100.00
2023-05-04T23:43:52.537Z,100.00
2023-05-04T23:46:18.937Z,100.00
2023-05-04T23:48:46.196Z,100.00
2023-05-04T23:51:12.636Z,100.00
2023-05-04T23:53:39.180Z,100.00
2023-05-04T23:56:06.166Z,100.00
2023-05-04T23:58:33.079Z,100.00
